createdAt,value
2018-05-02T00:05:18.836Z,45.20
2018-05-02T00:15:22.500Z,45.80
2018-05-02T00:22:55.092Z,45.80
2018-05-02T00:25:26.283Z,45.20
2018-05-02T01:05:36.636Z,48.00
2018-05-02T01:23:14.300Z,47.10
2018-05-02T02:00:55.160Z,48.80
2018-05-02T02:05:56.254Z,48.50
2018-05-02T02:13:28.824Z,50.20
2018-05-02T02:21:00.702Z,49.40
2018-05-02T02:28:32.525Z,48.50
2018-05-02T02:33:34.531Z,49.00
2018-05-02T02:36:05.197Z,49.00
2018-05-02T02:46:08.399Z,48.70
2018-05-02T03:11:16.557Z,48.80
2018-05-02T03:21:18.876Z,48.30
2018-05-02T03:23:49.404Z,48.70
2018-05-02T04:01:42.587Z,49.50
2018-05-02T04:19:29.405Z,50.50
2018-05-02T04:24:30.565Z,51.00
2018-05-02T04:42:42.420Z,50.40
2018-05-02T04:45:13.017Z,50.40
2018-05-02T04:57:48.944Z,48.70
2018-05-02T05:12:53.157Z,49.80
2018-05-02T05:43:01.219Z,48.60
2018-05-02T05:50:57.026Z,47.50
2018-05-02T05:53:27.504Z,47.30
2018-05-02T06:03:30.465Z,47.80
2018-05-02T06:11:02.849Z,47.50
2018-05-02T06:21:06.393Z,45.90
2018-05-02T06:23:38.059Z,44.90
2018-05-02T06:31:14.149Z,44.20
2018-05-02T06:41:19.144Z,44.40
2018-05-02T06:46:21.523Z,43.90
2018-05-02T06:48:52.716Z,43.90
2018-05-02T07:06:28.533Z,42.00
2018-05-02T07:16:31.097Z,41.50
2018-05-02T07:19:01.628Z,42.30
2018-05-02T07:29:04.791Z,40.70
2018-05-02T07:41:38.788Z,39.90
2018-05-02T07:51:43.069Z,40.40
2018-05-02T08:19:23.189Z,40.70
2018-05-02T08:26:55.887Z,40.40
2018-05-02T08:49:32.644Z,40.90
2018-05-02T09:22:12.470Z,39.80
2018-05-02T09:27:14.388Z,40.40
2018-05-02T09:59:55.007Z,38.00
2018-05-02T10:04:56.883Z,40.80
2018-05-02T10:07:28.236Z,39.30
2018-05-02T10:15:01.449Z,39.40
2018-05-02T10:17:32.066Z,39.80
2018-05-02T10:20:03.269Z,38.30
2018-05-02T10:22:34.500Z,38.00
2018-05-02T10:27:35.619Z,39.00
2018-05-02T10:37:38.902Z,39.30
2018-05-02T10:42:40.673Z,39.30
2018-05-02T11:00:15.757Z,37.70
2018-05-02T11:02:46.293Z,37.30
2018-05-02T11:20:23.117Z,37.80
2018-05-02T11:22:53.633Z,39.60
2018-05-02T11:30:25.941Z,38.70
2018-05-02T11:55:33.380Z,38.20
2018-05-02T12:25:42.296Z,37.60
2018-05-02T12:48:21.218Z,39.50
2018-05-02T13:00:55.339Z,40.40
2018-05-02T13:03:26.772Z,38.60
2018-05-02T13:13:29.394Z,38.20
2018-05-02T13:28:33.322Z,38.90
2018-05-02T13:31:04.761Z,38.90
2018-05-02T13:36:06.152Z,38.20
2018-05-02T13:38:38.007Z,37.50
2018-05-02T13:41:08.590Z,38.20
2018-05-02T13:43:39.041Z,37.60
2018-05-02T13:51:12.618Z,38.30
2018-05-02T14:08:47.067Z,39.40
2018-05-02T14:18:50.781Z,38.40
2018-05-02T14:21:23.125Z,39.90
2018-05-02T14:23:53.695Z,39.50
2018-05-02T14:26:24.185Z,38.60
2018-05-02T14:36:27.797Z,37.50
2018-05-02T14:47:01.581Z,40.50
2018-05-02T14:49:30.327Z,39.30
2018-05-02T14:51:59.168Z,41.00
2018-05-02T14:54:27.973Z,39.00
2018-05-02T14:56:56.761Z,39.20
2018-05-02T14:59:26.289Z,38.50
2018-05-02T15:01:55.243Z,38.40
2018-05-02T15:04:24.729Z,40.50
2018-05-02T15:06:53.484Z,40.40
2018-05-02T15:09:22.244Z,39.30
2018-05-02T15:11:52.837Z,38.10
2018-05-02T15:14:22.082Z,38.10
2018-05-02T15:16:52.682Z,37.80
2018-05-02T15:19:22.182Z,37.90
2018-05-02T15:21:52.035Z,39.50
2018-05-02T15:24:20.768Z,39.00
2018-05-02T15:26:49.697Z,38.40
2018-05-02T15:29:19.253Z,38.10
2018-05-02T15:31:48.112Z,37.80
2018-05-02T15:34:17.641Z,38.30
2018-05-02T15:36:46.499Z,38.20
2018-05-02T15:39:15.220Z,36.70
2018-05-02T15:41:43.958Z,36.00
2018-05-02T15:44:12.723Z,36.30
2018-05-02T15:46:41.742Z,36.70
2018-05-02T15:49:10.620Z,36.80
2018-05-02T15:51:39.560Z,37.00
2018-05-02T15:54:09.040Z,37.50
2018-05-02T15:56:37.914Z,37.30
2018-05-02T15:59:06.656Z,37.20
2018-05-02T16:01:35.586Z,37.80
2018-05-02T16:04:04.492Z,36.40
2018-05-02T16:06:33.954Z,36.70
2018-05-02T16:09:02.797Z,36.60
2018-05-02T16:11:31.607Z,38.10
2018-05-02T16:14:00.347Z,37.60
2018-05-02T16:16:29.276Z,37.70
2018-05-02T16:18:57.980Z,37.50
2018-05-02T16:21:27.490Z,36.60
2018-05-02T16:23:56.568Z,36.50
2018-05-02T16:26:25.467Z,37.00
2018-05-02T16:28:54.211Z,36.60
2018-05-02T16:31:22.969Z,38.10
2018-05-02T16:33:52.664Z,37.70
2018-05-02T16:36:23.256Z,36.90
2018-05-02T16:38:53.815Z,36.90
2018-05-02T16:41:22.798Z,37.00
2018-05-02T16:43:51.553Z,37.10
2018-05-02T16:46:20.947Z,36.40
2018-05-02T16:48:49.730Z,37.00
2018-05-02T16:51:19.218Z,37.20
2018-05-02T16:53:49.460Z,36.60
2018-05-02T16:56:19.565Z,36.60
2018-05-02T16:58:48.294Z,36.10
2018-05-02T17:01:18.165Z,35.40
2018-05-02T17:03:47.022Z,36.30
2018-05-02T17:06:15.753Z,35.90
2018-05-02T17:08:44.615Z,35.00
2018-05-02T17:11:14.223Z,36.30
2018-05-02T17:13:43.071Z,36.30
2018-05-02T17:16:12.172Z,36.70
2018-05-02T17:18:40.957Z,37.10
2018-05-02T17:21:09.855Z,38.20
2018-05-02T17:23:38.617Z,38.50
2018-05-02T17:26:07.358Z,37.80
2018-05-02T17:28:36.226Z,38.00
2018-05-02T17:31:06.256Z,39.00
2018-05-02T17:33:35.067Z,38.10
2018-05-02T17:36:05.643Z,38.80
2018-05-02T17:38:35.212Z,38.70
2018-05-02T17:41:04.676Z,39.20
2018-05-02T17:43:33.432Z,38.90
2018-05-02T17:46:02.940Z,39.40
2018-05-02T17:48:32.409Z,39.90
2018-05-02T17:51:02.161Z,41.00
2018-05-02T17:53:32.081Z,42.10
2018-05-02T17:56:01.138Z,42.00
2018-05-02T17:58:29.992Z,43.10
2018-05-02T18:00:58.802Z,43.30
2018-05-02T18:03:27.548Z,42.90
2018-05-02T18:05:56.418Z,44.20
2018-05-02T18:08:25.300Z,43.50
2018-05-02T18:10:54.693Z,43.80
2018-05-02T18:13:24.012Z,44.20
2018-05-02T18:15:54.873Z,44.30
2018-05-02T18:18:26.790Z,44.90
2018-05-02T18:20:56.426Z,44.80
2018-05-02T18:23:25.814Z,44.80
2018-05-02T18:25:54.907Z,45.70
2018-05-02T18:28:25.558Z,45.70
2018-05-02T18:31:11.685Z,45.30
2018-05-02T18:33:40.509Z,45.60
2018-05-02T18:36:10.043Z,45.30
2018-05-02T18:38:39.373Z,45.30
2018-05-02T18:41:08.113Z,45.40
2018-05-02T18:43:37.702Z,45.80
2018-05-02T18:46:06.437Z,46.30
2018-05-02T18:48:35.229Z,45.90
2018-05-02T18:51:04.537Z,46.50
2018-05-02T18:53:33.624Z,46.40
2018-05-02T18:56:02.443Z,45.80
2018-05-02T18:58:32.022Z,45.50
2018-05-02T19:01:01.450Z,45.80
2018-05-02T19:03:30.187Z,46.20
2018-05-02T19:05:58.921Z,46.20
2018-05-02T19:08:27.678Z,46.10
2018-05-02T19:10:57.115Z,46.50
2018-05-02T19:13:27.314Z,46.90
2018-05-02T19:15:56.446Z,47.40
2018-05-02T19:18:31.064Z,47.60
2018-05-02T19:20:59.846Z,48.00
2018-05-02T19:23:29.418Z,47.90
2018-05-02T19:26:03.817Z,48.00
2018-05-02T19:28:33.346Z,48.30
2018-05-02T19:31:07.870Z,48.30
2018-05-02T19:33:43.491Z,48.20
2018-05-02T19:36:13.070Z,48.60
2018-05-02T19:38:43.093Z,48.60
2018-05-02T19:41:18.643Z,48.90
2018-05-02T19:43:53.481Z,48.30
2018-05-02T19:46:22.252Z,48.00
2018-05-02T19:48:52.923Z,49.00
2018-05-02T19:51:27.596Z,49.40
2018-05-02T19:53:56.389Z,50.00
2018-05-02T19:56:25.129Z,49.90
2018-05-02T19:58:56.017Z,50.50
2018-05-02T20:04:23.162Z,51.60
2018-05-02T20:06:51.908Z,51.40
2018-05-02T20:09:26.268Z,52.40
2018-05-02T20:12:00.682Z,53.00
2018-05-02T20:14:29.576Z,52.70
2018-05-02T20:16:59.347Z,52.50
2018-05-02T20:19:28.653Z,52.10
2018-05-02T20:21:57.633Z,52.50
2018-05-02T20:24:26.846Z,53.50
2018-05-02T20:26:56.409Z,54.00
2018-05-02T20:29:25.165Z,55.20
2018-05-02T20:31:53.922Z,55.90
2018-05-02T20:34:22.685Z,57.20
2018-05-02T20:36:51.437Z,58.20
2018-05-02T20:39:21.030Z,60.90
2018-05-02T20:41:49.782Z,60.90
2018-05-02T20:44:18.741Z,62.30
2018-05-02T20:46:47.641Z,63.60
2018-05-02T20:49:16.384Z,64.60
2018-05-02T20:51:48.274Z,67.20
2018-05-02T20:54:17.082Z,68.00
2018-05-02T20:56:46.573Z,66.10
2018-05-02T20:59:16.150Z,66.10
2018-05-02T21:01:45.630Z,66.70
2018-05-02T21:04:15.399Z,66.40
2018-05-02T21:06:44.889Z,64.10
2018-05-02T21:09:15.880Z,61.30
2018-05-02T21:11:45.356Z,61.40
2018-05-02T21:14:14.771Z,64.10
2018-05-02T21:16:44.036Z,63.50
2018-05-02T21:19:12.810Z,62.50
2018-05-02T21:21:43.051Z,61.50
2018-05-02T21:24:13.456Z,61.30
2018-05-02T21:26:42.292Z,60.90
2018-05-02T21:29:11.012Z,60.60
2018-05-02T21:31:39.813Z,61.70
2018-05-02T21:34:08.586Z,62.30
2018-05-02T21:36:37.345Z,61.30
2018-05-02T21:39:06.139Z,60.10
2018-05-02T21:41:34.951Z,60.70
2018-05-02T21:44:03.990Z,63.00
2018-05-02T21:46:33.517Z,63.80
2018-05-02T21:49:02.290Z,63.70
2018-05-02T21:51:32.073Z,65.30
2018-05-02T21:54:00.818Z,67.40
2018-05-02T21:56:30.386Z,66.60
2018-05-02T21:58:59.693Z,66.60
2018-05-02T22:01:29.984Z,65.20
2018-05-02T22:03:59.689Z,65.10
2018-05-02T22:06:28.851Z,66.80
2018-05-02T22:08:58.911Z,67.20
2018-05-02T22:11:27.658Z,66.80
2018-05-02T22:13:57.084Z,66.20
2018-05-02T22:16:26.028Z,67.60
2018-05-02T22:18:55.487Z,67.50
2018-05-02T22:21:24.581Z,69.20
2018-05-02T22:23:53.540Z,69.60
2018-05-02T22:26:22.283Z,69.70
2018-05-02T22:28:51.196Z,70.40
2018-05-02T22:31:19.945Z,69.80
2018-05-02T22:33:48.789Z,70.20
2018-05-02T22:36:18.342Z,66.00
2018-05-02T22:38:47.096Z,66.00
2018-05-02T22:41:17.196Z,65.60
2018-05-02T22:43:45.932Z,65.10
2018-05-02T22:46:15.477Z,65.50
2018-05-02T22:48:44.789Z,63.70
2018-05-02T22:51:14.232Z,63.40
2018-05-02T22:53:43.079Z,63.40
2018-05-02T22:56:12.148Z,65.00
2018-05-02T22:58:41.745Z,65.50
2018-05-02T23:01:10.509Z,65.40
2018-05-02T23:03:39.242Z,64.70
2018-05-02T23:06:07.981Z,65.20
2018-05-02T23:08:36.718Z,64.10
2018-05-02T23:11:06.356Z,64.80
2018-05-02T23:13:45.284Z,65.30
2018-05-02T23:16:15.148Z,63.60
2018-05-02T23:18:43.865Z,64.20
2018-05-02T23:21:12.681Z,63.30
2018-05-02T23:23:41.436Z,63.90
2018-05-02T23:26:10.190Z,62.80
2018-05-02T23:28:39.910Z,62.10
2018-05-02T23:31:09.392Z,63.00
2018-05-02T23:33:38.117Z,65.20
2018-05-02T23:36:06.957Z,65.60
2018-05-02T23:38:35.774Z,68.90
2018-05-02T23:41:04.885Z,68.00
2018-05-02T23:43:33.672Z,68.10
2018-05-02T23:46:03.152Z,66.80
2018-05-02T23:48:31.912Z,65.50
2018-05-02T23:51:02.006Z,66.90
2018-05-02T23:53:31.405Z,66.80
2018-05-02T23:56:00.534Z,67.40
2018-05-02T23:58:30.616Z,68.10
